• Join FlightAware (Why Join?)
  • Login
  • US Flag 
10:51PM EDT


 

Airport Tracker/Info


-or-


 

Live Flight TrackerFlight Track Log ✈ N100MJ ✈ 22-Oct-2013 ✈ KNHK - KSOP

Flight Track Log - Related Links

Times and Time Zones

All times are in EDT time to prevent confusion due to time zone crossing. See the N100MJ flight status page for this flight to view local times or setup timezone preferences in your user account.

Time Position Orientation Groundspeed Altitude Reporting Facility
EDT Latitude Longitude Course Direction KTS MPH feet Rate Location/Type
02:47PM 38.5892 -76.0619 221° Southwest 158 182 5,200  Level Washington Center
02:48PM 38.5536 -76.1014 221° Southwest 163 188 4,800 -360 Descending Washington Center
02:49PM 38.5200 -76.1411 223° Southwest 164 189 4,500 -180 Descending Washington Center
02:50PM 38.4844 -76.1831 223° Southwest 161 185 4,500  Level Washington Center
02:51PM 38.4508 -76.2200 221° Southwest 155 178 4,500  Level Washington Center
02:52PM 38.4217 -76.2569 225° Southwest 157 181 4,500  Level Washington Center
02:53PM 38.3858 -76.2936 219° Southwest 157 181 4,500  Level Washington Center
02:54PM 38.3503 -76.3331 221° Southwest 157 181 4,500  Level Washington Center
02:55PM 38.3167 -76.3725 223° Southwest 156 180 4,500  Level Washington Center
02:56PM 38.2831 -76.4144 224° Southwest 157 181 4,500  Level Washington Center
02:57PM 38.2533 -76.4589 230° Southwest 153 176 4,500  Level Washington Center
02:58PM 38.2239 -76.4983 226° Southwest 154 177 4,500  Level Washington Center
02:59PM 38.1967 -76.5350 227° Southwest 154 177 4,500  Level Washington Center
03:00PM 38.1669 -76.5794 230° Southwest 155 178 4,500 -60 Level Washington Center
03:01PM 38.1375 -76.6186 226° Southwest 153 176 4,400  Descending Washington Center
03:02PM 38.1081 -76.6578 226° Southwest 152 175 4,500  Climbing Washington Center
03:03PM 38.0783 -76.6969 226° Southwest 155 178 4,500  Level Washington Center
03:04PM 38.0489 -76.7389 228° Southwest 154 177 4,500  Level Washington Center
03:05PM 38.0153 -76.7725 218° Southwest 155 178 4,500  Level Washington Center
03:06PM 37.9836 -76.8036 218° Southwest 156 180 4,500  Level Washington Center
03:08PM 37.9333 -76.8500 216° Southwest 159 183 4,500  Level Potomac TRACON
03:09PM 37.9000 -76.8833 218° Southwest 162 186 4,500  Level Potomac TRACON
03:10PM 37.8667 -76.9167 218° Southwest 157 181 4,500  Level Potomac TRACON
03:11PM 37.8167 -76.9500 208° Southwest 156 180 4,500  Level Potomac TRACON
03:12PM 37.7833 -76.9833 218° Southwest 158 182 4,500  Level Potomac TRACON
03:13PM 37.7500 -77.0333 230° Southwest 157 181 4,500  Level Potomac TRACON
03:14PM 37.7167 -77.0667 218° Southwest 156 180 4,500  Level Potomac TRACON
03:15PM 37.6833 -77.1000 218° Southwest 158 182 4,500  Level Potomac TRACON
03:16PM 37.6500 -77.1333 218° Southwest 157 181 4,500  Level Potomac TRACON
03:17PM 37.6167 -77.1667 218° Southwest 156 180 4,500  Level Potomac TRACON
03:18PM 37.5667 -77.2000 208° Southwest 156 180 4,500  Level Potomac TRACON
03:19PM 37.5333 -77.2333 218° Southwest 153 176 4,500  Level Potomac TRACON
03:20PM 37.5000 -77.2667 218° Southwest 158 182 4,500  Level Potomac TRACON
03:21PM 37.4667 -77.3000 218° Southwest 163 188 4,500  Level Potomac TRACON
03:22PM 37.4333 -77.3333 218° Southwest 154 177 4,500 -60 Level Potomac TRACON
03:23PM 37.4000 -77.3667 218° Southwest 152 175 4,400  Descending Potomac TRACON
03:24PM 37.3667 -77.4000 218° Southwest 153 176 4,500  Climbing Potomac TRACON
03:25PM 37.3333 -77.4333 218° Southwest 158 182 4,500 -60 Level Potomac TRACON
03:26PM 37.3000 -77.4667 219° Southwest 152 175 4,400  Descending Potomac TRACON
03:27PM 37.2667 -77.5000 219° Southwest 150 173 4,500  Climbing Potomac TRACON
03:28PM 37.2422 -77.5225 216° Southwest 152 175 4,500  Level Washington Center
03:29PM 37.2125 -77.5531 219° Southwest 146 168 4,500 -60 Level Washington Center
03:31PM 37.1568 -77.5940 210° Southwest  Level FlightAware Approximate
03:38PM 36.9096 -77.7872 217° Southwest  Level FlightAware Approximate
03:39PM 36.8764 -77.8186 217° Southwest  Level FlightAware Approximate
03:40PM 36.8431 -77.8500 217° Southwest  Level FlightAware Approximate
03:40PM 36.8408 -77.9094 217° Southwest 161 185 4,400  Level Washington Center
03:41PM 36.8098 -77.8813 217° Southwest  Level FlightAware Approximate
03:41PM 36.8069 -77.9397 216° Southwest 161 185 4,400  Level Washington Center
03:42PM 36.7765 -77.9126 217° Southwest  Level FlightAware Approximate
03:43PM 36.7529 -77.9824 212° Southwest  Level FlightAware Approximate
03:43PM 36.7432 -77.9439 217° Southwest  Level FlightAware Approximate
03:44PM 36.7099 -77.9751 217° Southwest  Level FlightAware Approximate
03:45PM 36.6766 -78.0064 217° Southwest  Level FlightAware Approximate
03:46PM 36.6453 -78.0953 212° Southwest 155 178 4,400  Level Washington Center
03:47PM 36.6047 -78.1353 218° Southwest 148 170 4,500  Climbing Washington Center
03:48PM 36.5794 -78.1553 212° Southwest 155 178 4,400  Descending Washington Center
03:48PM 36.5728 -78.1678 236° Southwest 145 167 4,500  Climbing Washington Center
03:49PM 36.5494 -78.1903 218° Southwest 155 178 4,400  Descending Washington Center
03:49PM 36.5408 -78.1978 215° Southwest 144 166 4,500  Climbing Washington Center
03:50PM 36.5062 -78.1763 212° Southwest  Level FlightAware Approximate
03:50PM 36.5153 -78.2178 212° Southwest 155 178 4,400  Level Washington Center
03:50PM 36.5047 -78.2278 217° Southwest 145 167 4,500 60 Climbing Washington Center
03:51PM 36.4769 -78.2550 218° Southwest 146 168 4,500 -60 Level Washington Center
03:52PM 36.4494 -78.2800 216° Southwest 155 178 4,400  Descending Washington Center
03:52PM 36.4386 -78.2900 217° Southwest 148 170 4,500 60 Climbing Washington Center
03:53PM 36.4150 -78.3150 220° Southwest 148 170 4,500  Level Washington Center
03:54PM 36.3853 -78.3422 216° Southwest 148 170 4,500 -60 Level Washington Center
03:55PM 36.3575 -78.3697 219° Southwest 153 176 4,400 -60 Descending Washington Center
03:56PM 36.3253 -78.4097 225° Southwest 143 165 4,400  Level Washington Center
03:57PM 36.2994 -78.4425 226° Southwest 143 165 4,400 60 Level Washington Center
03:57PM 36.2953 -78.4475 224° Southwest 147 169 4,500 60 Climbing Washington Center
03:58PM 36.2631 -78.4875 225° Southwest 147 169 4,500  Level Washington Center
03:59PM 36.2328 -78.5275 227° Southwest 147 169 4,500  Level Washington Center
04:00PM 36.2025 -78.5650 225° Southwest 146 168 4,500  Level Washington Center
04:01PM 36.1725 -78.6025 225° Southwest 147 169 4,500  Level Washington Center
04:02PM 36.1464 -78.6400 229° Southwest 148 170 4,500  Level Washington Center
04:03PM 36.1164 -78.6750 223° Southwest 147 169 4,500  Level Washington Center
04:04PM 36.0883 -78.7150 229° Southwest 148 170 4,500  Level Washington Center
04:05PM 36.0558 -78.7547 225° Southwest 149 171 4,500  Level Washington Center
04:06PM 36.0278 -78.7947 229° Southwest 146 168 4,500  Level Washington Center
04:07PM 36.0017 -78.8297 227° Southwest 147 169 4,500  Level Washington Center
04:08PM 35.9758 -78.8644 227° Southwest 147 169 4,500  Level Washington Center
04:09PM 35.9456 -78.9017 225° Southwest 148 170 4,500  Level Washington Center
04:11PM 35.9150 -78.9467 230° Southwest 148 170 4,500  Level Washington Center
04:12PM 35.8869 -78.9839 227° Southwest 145 167 4,500  Level Washington Center
04:13PM 35.8364 -78.9944 190° South 159 183 4,500  Level Washington Center
04:13PM 35.8156 -78.9986 189° South 157 181 4,500  Level Washington Center
04:15PM 35.7608 -79.0169 195° South 152 175 4,500  Level Washington Center
04:16PM 35.7269 -79.0333 201° Southwest 152 175 4,500  Level Washington Center
04:17PM 35.6889 -79.0586 208° Southwest  Level FlightAware Approximate
04:24PM 35.4248 -79.2398 212° Southwest  Level FlightAware Approximate
04:25PM 35.3880 -79.2674 211° Southwest  Level FlightAware Approximate
04:26PM 35.3511 -79.2951 211° Southwest  Level FlightAware Approximate
04:27PM 35.3142 -79.3228 211° Southwest  Level FlightAware Approximate
04:28PM 35.2774 -79.3504 211° Southwest  Level FlightAware Approximate
04:29PM 35.2405 -79.3780 211° Southwest  Level FlightAware Approximate
04:30PM 35.2333 -79.3833 212° Southwest  Level FlightAware Approximate
04:31PM 35.2380 -79.3883 212° Southwest  Level Estimated
04:32PM 35.2333 -79.3833 212° Southwest  Level FlightAware Approximate
04:33PM 35.2380 -79.3883 212° Southwest  Level Estimated
04:34PM 35.2333 -79.3833 212° Southwest  Level FlightAware Approximate
04:35PM 35.2380 -79.3883 212° Southwest  Level Estimated
04:36PM 35.2333 -79.3833 212° Southwest  Level FlightAware Approximate
04:37PM 35.2380 -79.3883 212° Southwest  Level Estimated
04:38PM 35.2333 -79.3833 212° Southwest  Level FlightAware Approximate